createdAt,value
2022-09-21T00:01:33.719Z,10.50
2022-09-21T00:04:03.658Z,41.80
2022-09-21T00:06:33.636Z,12.60
2022-09-21T00:11:34.039Z,28.88
2022-09-21T00:16:39.234Z,50.03
2022-09-21T00:19:13.138Z,17.30
2022-09-21T00:21:41.076Z,24.95
2022-09-21T00:24:09.767Z,28.30
2022-09-21T00:26:37.609Z,31.33
2022-09-21T00:29:06.143Z,44.35
2022-09-21T00:31:34.241Z,34.45
2022-09-21T00:34:03.767Z,32.22
2022-09-21T00:36:31.910Z,19.77
2022-09-21T00:39:01.781Z,49.40
2022-09-21T00:41:32.286Z,25.98
2022-09-21T00:44:21.664Z,20.40
2022-09-21T00:46:52.975Z,39.65
2022-09-21T00:49:21.707Z,7.75
2022-09-21T00:51:53.303Z,9.65
2022-09-21T00:54:27.447Z,3.47
2022-09-21T00:57:01.792Z,49.47
2022-09-21T00:59:31.710Z,32.50
2022-09-21T01:02:02.716Z,8.75
2022-09-21T01:04:30.983Z,8.15
2022-09-21T01:06:59.936Z,39.95
2022-09-21T01:09:28.440Z,11.45
2022-09-21T01:12:01.812Z,11.27
2022-09-21T01:14:44.854Z,11.63
2022-09-21T01:17:50.814Z,45.15
2022-09-21T01:20:36.614Z,18.13
2022-09-21T01:23:15.539Z,15.20
2022-09-21T01:26:06.601Z,26.35
2022-09-21T01:28:50.319Z,19.92
2022-09-21T01:31:24.566Z,4.38
2022-09-21T01:34:01.846Z,41.55
2022-09-21T01:36:38.284Z,30.17
2022-09-21T01:39:14.596Z,11.43
2022-09-21T01:41:45.225Z,39.83
2022-09-21T01:44:21.407Z,28.75
2022-09-21T01:46:49.506Z,16.88
2022-09-21T01:49:22.299Z,34.85
2022-09-21T01:51:56.952Z,17.45
2022-09-21T01:54:38.023Z,31.20
2022-09-21T01:57:42.302Z,9.82
2022-09-21T02:00:11.086Z,25.48
2022-09-21T02:02:51.087Z,16.42
2022-09-21T02:05:20.687Z,14.63
2022-09-21T02:07:48.859Z,34.28
2022-09-21T02:10:31.862Z,27.25
2022-09-21T02:13:03.047Z,32.72
2022-09-21T02:16:12.827Z,6.03
2022-09-21T02:18:57.848Z,35.45
2022-09-21T02:21:53.629Z,41.47
2022-09-21T02:24:28.243Z,33.00
2022-09-21T02:27:04.128Z,14.32
2022-09-21T02:29:58.259Z,44.60
2022-09-21T02:32:28.619Z,5.45
2022-09-21T02:35:20.681Z,52.10
2022-09-21T02:38:02.037Z,33.70
2022-09-21T02:40:36.034Z,12.90
2022-09-21T02:43:10.227Z,62.08
2022-09-21T02:45:48.611Z,13.40
2022-09-21T02:48:24.796Z,63.55
2022-09-21T02:53:36.628Z,38.60
2022-09-21T02:58:47.749Z,24.50
2022-09-21T03:01:16.702Z,49.67
2022-09-21T03:03:44.970Z,16.15
2022-09-21T03:06:13.287Z,15.43
2022-09-21T03:08:41.321Z,26.55
2022-09-21T03:11:10.982Z,25.48
2022-09-21T03:13:42.214Z,49.30
2022-09-21T03:16:10.093Z,39.45
2022-09-21T03:18:39.462Z,10.65
2022-09-21T03:21:07.642Z,31.90
2022-09-21T03:23:37.976Z,11.88
2022-09-21T03:26:05.890Z,36.67
2022-09-21T03:28:33.970Z,15.27
2022-09-21T03:31:01.971Z,2.03
2022-09-21T03:33:29.812Z,26.85
2022-09-21T03:35:57.727Z,9.45
2022-09-21T03:38:26.727Z,23.65
2022-09-21T03:40:58.468Z,24.45
2022-09-21T03:43:26.324Z,16.55
2022-09-21T03:45:54.251Z,28.00
2022-09-21T03:48:22.355Z,30.90
2022-09-21T03:50:50.338Z,18.25
2022-09-21T03:53:18.712Z,34.58
2022-09-21T03:55:46.728Z,15.60
2022-09-21T03:58:14.768Z,24.23
2022-09-21T04:00:43.068Z,24.42
2022-09-21T04:03:10.908Z,27.00
2022-09-21T04:05:40.040Z,28.25
2022-09-21T04:08:10.126Z,9.02
2022-09-21T04:10:38.016Z,8.60
2022-09-21T04:13:06.619Z,13.63
2022-09-21T04:15:34.215Z,43.92
2022-09-21T04:18:03.050Z,35.65
2022-09-21T04:20:30.878Z,17.38
2022-09-21T04:23:00.678Z,51.50
2022-09-21T04:25:28.894Z,48.42
2022-09-21T04:27:58.205Z,39.13
2022-09-21T04:30:26.102Z,35.58
2022-09-21T04:32:54.071Z,18.73
2022-09-21T04:35:22.173Z,48.47
2022-09-21T04:37:49.928Z,7.20
2022-09-21T04:40:17.890Z,24.35
2022-09-21T04:42:48.665Z,73.40
2022-09-21T04:45:17.753Z,39.97
2022-09-21T04:47:45.906Z,45.05
2022-09-21T04:50:14.873Z,65.25
2022-09-21T04:52:43.173Z,53.10
2022-09-21T04:55:11.778Z,62.70
2022-09-21T04:57:39.970Z,52.15
2022-09-21T05:00:08.598Z,72.82
2022-09-21T05:02:36.289Z,82.10
2022-09-21T05:05:04.209Z,29.60
2022-09-21T05:07:32.182Z,36.25
2022-09-21T05:10:03.597Z,24.73
2022-09-21T05:12:37.525Z,20.10
2022-09-21T05:15:08.068Z,27.50
2022-09-21T05:17:35.989Z,37.38
2022-09-21T05:20:05.712Z,29.67
2022-09-21T05:22:34.092Z,19.40
2022-09-21T05:25:02.310Z,71.57
2022-09-21T05:27:30.136Z,42.15
2022-09-21T05:29:58.275Z,42.55
2022-09-21T05:32:54.637Z,21.95
2022-09-21T05:35:45.355Z,30.27
2022-09-21T05:38:18.738Z,26.65
2022-09-21T05:40:56.344Z,37.72
2022-09-21T05:43:24.575Z,51.08
2022-09-21T05:46:11.403Z,47.30
2022-09-21T05:48:48.668Z,63.85
2022-09-21T05:51:22.756Z,101.80
2022-09-21T05:54:13.473Z,46.05
2022-09-21T05:56:55.900Z,52.38
2022-09-21T06:02:26.949Z,79.55
2022-09-21T06:04:58.253Z,85.07
2022-09-21T06:07:25.957Z,53.13
2022-09-21T06:09:54.027Z,54.38
2022-09-21T06:12:34.626Z,49.67
2022-09-21T06:15:02.563Z,113.88
2022-09-21T06:17:30.316Z,56.63
2022-09-21T06:19:57.986Z,90.70
2022-09-21T06:22:25.756Z,49.55
2022-09-21T06:24:55.984Z,35.53
2022-09-21T06:27:23.583Z,41.33
2022-09-21T06:29:53.248Z,70.45
2022-09-21T06:32:24.802Z,44.28
2022-09-21T06:34:52.405Z,62.70
2022-09-21T06:37:20.319Z,58.97
2022-09-21T06:39:48.472Z,56.38
2022-09-21T06:42:16.340Z,61.42
2022-09-21T06:44:46.675Z,42.15
2022-09-21T06:47:14.461Z,76.82
2022-09-21T06:49:42.801Z,79.97
2022-09-21T06:52:17.254Z,59.35
2022-09-21T06:54:45.111Z,119.88
2022-09-21T06:57:13.305Z,88.28
2022-09-21T06:59:41.033Z,53.67
2022-09-21T07:02:10.499Z,78.72
2022-09-21T07:04:38.707Z,53.67
2022-09-21T07:07:06.590Z,71.65
2022-09-21T07:12:22.162Z,45.42
2022-09-21T07:14:53.344Z,71.32
2022-09-21T07:17:21.635Z,53.05
2022-09-21T07:19:50.605Z,44.67
2022-09-21T07:22:18.281Z,45.80
2022-09-21T07:24:47.021Z,103.10
2022-09-21T07:27:18.719Z,37.83
2022-09-21T07:29:46.834Z,43.17
2022-09-21T07:32:14.762Z,61.60
2022-09-21T07:34:42.911Z,73.03
2022-09-21T07:37:10.826Z,72.68
2022-09-21T07:39:39.117Z,91.57
2022-09-21T07:42:07.533Z,56.63
2022-09-21T07:44:35.464Z,67.15
2022-09-21T07:47:04.667Z,71.40
2022-09-21T07:49:32.461Z,58.00
2022-09-21T07:52:03.892Z,57.42
2022-09-21T07:54:33.897Z,33.63
2022-09-21T07:57:20.263Z,40.67
2022-09-21T07:59:48.299Z,70.93
2022-09-21T08:02:16.012Z,49.97
2022-09-21T08:04:43.677Z,46.75
2022-09-21T08:07:12.578Z,57.70
2022-09-21T08:09:41.055Z,74.65
2022-09-21T08:12:09.336Z,72.72
2022-09-21T08:14:38.559Z,52.97
2022-09-21T08:17:06.491Z,68.80
2022-09-21T08:19:34.700Z,84.22
2022-09-21T08:22:02.770Z,57.95
2022-09-21T08:24:32.011Z,75.97
2022-09-21T08:27:00.453Z,69.38
2022-09-21T08:29:28.372Z,103.05
2022-09-21T08:31:56.756Z,109.57
2022-09-21T08:34:27.214Z,61.83
2022-09-21T08:36:55.900Z,73.90
2022-09-21T08:39:24.042Z,61.22
2022-09-21T08:42:13.470Z,101.85
2022-09-21T08:44:53.111Z,67.68
2022-09-21T08:47:42.076Z,55.70
2022-09-21T08:50:33.977Z,46.90
2022-09-21T08:53:14.906Z,41.75
2022-09-21T08:55:44.198Z,96.28
2022-09-21T08:58:31.547Z,54.03
2022-09-21T09:01:09.126Z,50.05
2022-09-21T09:03:53.073Z,87.82
2022-09-21T09:06:33.061Z,47.20
2022-09-21T09:09:00.886Z,60.33
2022-09-21T09:11:49.799Z,41.38
2022-09-21T09:14:42.736Z,75.53
2022-09-21T09:17:30.136Z,47.53
2022-09-21T09:19:59.642Z,43.75
2022-09-21T09:22:35.027Z,54.55
2022-09-21T09:25:06.732Z,49.10
2022-09-21T09:27:43.611Z,66.70
2022-09-21T09:30:20.032Z,59.72
2022-09-21T09:32:59.812Z,54.28
2022-09-21T09:35:46.648Z,40.97
2022-09-21T09:38:31.937Z,18.70
2022-09-21T09:41:09.406Z,71.90
2022-09-21T09:44:18.246Z,50.47
2022-09-21T09:46:55.569Z,37.35
2022-09-21T09:50:00.846Z,64.15
2022-09-21T09:52:28.762Z,58.42
2022-09-21T09:54:57.196Z,39.53
2022-09-21T09:57:30.566Z,33.58
2022-09-21T10:00:03.992Z,18.77
2022-09-21T10:02:33.076Z,11.25
2022-09-21T10:05:06.523Z,21.90
2022-09-21T10:07:46.199Z,20.27
2022-09-21T10:10:34.426Z,17.75
2022-09-21T10:18:24.516Z,17.45
2022-09-21T10:21:29.482Z,22.08
2022-09-21T10:24:04.423Z,18.92
2022-09-21T10:26:45.427Z,29.88
2022-09-21T10:29:22.620Z,28.10
2022-09-21T10:32:16.367Z,45.50
2022-09-21T10:35:04.079Z,28.95
2022-09-21T10:37:54.706Z,36.22
2022-09-21T10:40:22.970Z,54.88
2022-09-21T10:42:54.615Z,35.28
2022-09-21T10:45:26.201Z,24.48
2022-09-21T10:48:05.080Z,54.63
2022-09-21T10:50:42.018Z,66.70
2022-09-21T10:53:34.309Z,42.58
2022-09-21T10:56:16.680Z,32.20
2022-09-21T10:59:12.902Z,63.38
2022-09-21T11:01:47.690Z,50.10
2022-09-21T11:04:24.529Z,72.35
2022-09-21T11:06:56.097Z,44.85
2022-09-21T11:09:32.939Z,47.83
2022-09-21T11:12:05.127Z,57.00
2022-09-21T11:14:46.824Z,45.60
2022-09-21T11:17:32.586Z,26.63
2022-09-21T11:20:27.318Z,32.05
2022-09-21T11:23:04.450Z,27.00
2022-09-21T11:25:49.886Z,46.13
2022-09-21T11:28:24.338Z,44.40
2022-09-21T11:31:29.681Z,35.42
2022-09-21T11:34:16.405Z,56.47
2022-09-21T11:37:11.112Z,44.72
2022-09-21T11:39:51.911Z,41.92
2022-09-21T11:42:35.423Z,40.53
2022-09-21T11:45:11.274Z,56.33
2022-09-21T11:48:10.820Z,55.03
2022-09-21T11:51:04.565Z,49.78
2022-09-21T11:53:59.966Z,43.42
2022-09-21T11:56:35.571Z,59.38
2022-09-21T11:59:25.711Z,58.22
2022-09-21T12:02:05.676Z,36.20
2022-09-21T12:04:52.044Z,84.22
2022-09-21T12:07:44.109Z,91.63
2022-09-21T12:10:17.069Z,38.53
2022-09-21T12:13:00.720Z,46.30
2022-09-21T12:15:41.335Z,54.28
2022-09-21T12:18:27.530Z,69.13
2022-09-21T12:21:03.778Z,58.03
2022-09-21T12:23:40.922Z,56.47
2022-09-21T12:26:15.451Z,68.55
2022-09-21T12:28:53.688Z,58.88
2022-09-21T12:31:43.124Z,71.65
2022-09-21T12:34:49.574Z,56.80
2022-09-21T12:37:25.272Z,38.38
2022-09-21T12:39:56.982Z,46.95
2022-09-21T12:42:35.909Z,56.78
2022-09-21T12:45:07.085Z,23.40
2022-09-21T12:48:12.500Z,50.30
2022-09-21T12:50:45.276Z,51.20
2022-09-21T12:53:21.952Z,20.05
2022-09-21T12:55:56.068Z,30.42
2022-09-21T12:58:41.694Z,52.53
2022-09-21T13:01:28.647Z,20.20
2022-09-21T13:04:24.884Z,18.27
2022-09-21T13:07:23.772Z,44.53
2022-09-21T13:09:54.661Z,25.98
2022-09-21T13:12:34.967Z,43.83
2022-09-21T13:15:14.318Z,38.35
2022-09-21T13:17:42.227Z,35.83
2022-09-21T13:20:21.241Z,29.38
2022-09-21T13:22:49.332Z,50.17
2022-09-21T13:25:28.237Z,19.52
2022-09-21T13:28:42.201Z,30.25
2022-09-21T13:31:39.456Z,40.95
2022-09-21T13:34:09.974Z,35.03
2022-09-21T13:36:37.689Z,18.88
2022-09-21T13:39:19.625Z,28.92
2022-09-21T13:42:02.872Z,20.25
2022-09-21T13:44:46.507Z,30.83
2022-09-21T13:47:14.889Z,29.60
2022-09-21T13:49:54.087Z,23.98
2022-09-21T13:55:05.625Z,31.73
2022-09-21T13:57:48.519Z,33.63
2022-09-21T14:00:23.929Z,18.30
2022-09-21T14:03:01.149Z,25.95
2022-09-21T14:05:56.678Z,19.33
2022-09-21T14:08:29.971Z,18.75
2022-09-21T14:11:18.305Z,14.05
2022-09-21T14:16:52.406Z,23.33
2022-09-21T14:19:23.541Z,29.42
2022-09-21T14:22:08.482Z,14.95
2022-09-21T14:24:38.653Z,53.15
2022-09-21T14:27:14.575Z,48.25
2022-09-21T14:30:00.033Z,40.08
2022-09-21T14:32:42.614Z,40.65
2022-09-21T14:35:24.862Z,20.42
2022-09-21T14:40:39.142Z,13.80
2022-09-21T14:43:15.716Z,22.27
2022-09-21T14:46:00.406Z,18.67
2022-09-21T14:48:34.939Z,18.33
2022-09-21T14:51:40.388Z,12.38
2022-09-21T14:54:27.053Z,15.35
2022-09-21T14:57:13.355Z,17.67
2022-09-21T14:59:55.069Z,40.60
2022-09-21T15:02:35.855Z,25.48
2022-09-21T15:05:10.247Z,18.05
2022-09-21T15:08:07.610Z,28.85
2022-09-21T15:10:58.988Z,29.15
2022-09-21T15:14:20.734Z,18.65
2022-09-21T15:16:51.799Z,20.15
2022-09-21T15:19:19.561Z,29.40
2022-09-21T15:22:10.817Z,38.72
2022-09-21T15:24:48.654Z,50.80
2022-09-21T15:27:18.446Z,19.50
2022-09-21T15:29:51.627Z,20.42
2022-09-21T15:32:36.800Z,9.75
2022-09-21T15:35:20.493Z,24.23
2022-09-21T15:37:49.153Z,27.05
2022-09-21T15:40:22.925Z,17.33
2022-09-21T15:43:12.109Z,24.73
2022-09-21T15:45:58.177Z,25.73
2022-09-21T15:48:34.296Z,17.92
2022-09-21T15:53:45.039Z,16.92
2022-09-21T15:56:26.647Z,11.27
2022-09-21T15:59:15.104Z,14.23
2022-09-21T16:04:28.971Z,19.98
2022-09-21T16:07:33.480Z,16.73
2022-09-21T16:10:02.053Z,18.65
2022-09-21T16:12:45.331Z,24.80
2022-09-21T16:15:29.335Z,10.30
2022-09-21T16:18:02.028Z,19.88
2022-09-21T16:20:47.605Z,18.45
2022-09-21T16:23:17.072Z,15.15
2022-09-21T16:25:44.717Z,27.35
2022-09-21T16:28:36.915Z,16.90
2022-09-21T16:31:24.271Z,10.63
2022-09-21T16:33:51.971Z,10.18
2022-09-21T16:36:34.064Z,16.45
2022-09-21T16:39:06.280Z,4.32
2022-09-21T16:41:38.950Z,8.73
2022-09-21T16:44:09.174Z,13.90
2022-09-21T16:46:37.487Z,28.08
2022-09-21T16:49:04.804Z,9.20
2022-09-21T16:51:32.423Z,29.67
2022-09-21T16:54:00.216Z,19.30
2022-09-21T16:56:27.923Z,11.73
2022-09-21T16:58:55.533Z,13.25
2022-09-21T17:01:22.732Z,9.95
2022-09-21T17:03:50.380Z,8.95
2022-09-21T17:06:19.387Z,8.80
2022-09-21T17:08:48.416Z,10.32
2022-09-21T17:11:19.976Z,9.15
2022-09-21T17:13:51.362Z,21.98
2022-09-21T17:16:20.198Z,16.85
2022-09-21T17:18:51.968Z,12.52
2022-09-21T17:21:19.394Z,9.30
2022-09-21T17:23:46.870Z,9.00
2022-09-21T17:26:21.297Z,34.95
2022-09-21T17:28:49.016Z,5.53
2022-09-21T17:31:17.309Z,8.35
2022-09-21T17:33:45.721Z,6.47
2022-09-21T17:36:16.753Z,7.18
2022-09-21T17:38:44.990Z,7.55
2022-09-21T17:41:36.592Z,5.03
2022-09-21T17:44:08.398Z,6.85
2022-09-21T17:46:41.807Z,7.20
2022-09-21T17:49:11.500Z,10.77
2022-09-21T17:51:57.585Z,5.70
2022-09-21T17:54:25.240Z,5.75
2022-09-21T17:57:15.447Z,3.95
2022-09-21T17:59:49.046Z,8.80
2022-09-21T18:02:24.504Z,7.88
2022-09-21T18:04:55.227Z,8.05
2022-09-21T18:07:25.137Z,8.98
2022-09-21T18:12:36.978Z,4.50
2022-09-21T18:15:15.156Z,7.32
2022-09-21T18:18:09.797Z,14.50
2022-09-21T18:20:39.638Z,8.40
2022-09-21T18:23:32.934Z,27.70
2022-09-21T18:26:01.006Z,35.80
2022-09-21T18:28:41.672Z,2.58
2022-09-21T18:31:27.930Z,8.85
2022-09-21T18:33:56.948Z,3.60
2022-09-21T18:36:33.174Z,4.03
2022-09-21T18:39:14.047Z,1.92
2022-09-21T18:42:06.405Z,4.72
2022-09-21T18:44:38.349Z,4.22
2022-09-21T18:47:13.201Z,3.35
2022-09-21T18:49:58.833Z,6.95
2022-09-21T18:53:05.068Z,3.45
2022-09-21T18:55:33.512Z,4.38
2022-09-21T18:58:04.023Z,12.70
2022-09-21T19:00:32.494Z,3.95
2022-09-21T19:03:16.503Z,7.78
2022-09-21T19:06:03.789Z,7.97
2022-09-21T19:08:34.431Z,3.33
2022-09-21T19:11:27.797Z,3.80
2022-09-21T19:14:38.993Z,8.70
2022-09-21T19:17:21.547Z,5.55
2022-09-21T19:20:07.328Z,6.55
2022-09-21T19:22:54.970Z,6.57
2022-09-21T19:25:40.801Z,3.10
2022-09-21T19:28:36.503Z,2.45
2022-09-21T19:31:10.611Z,2.47
2022-09-21T19:33:50.110Z,5.35
2022-09-21T19:36:18.486Z,7.75
2022-09-21T19:38:46.049Z,2.15
2022-09-21T19:41:32.229Z,5.00
2022-09-21T19:44:10.104Z,5.78
2022-09-21T19:47:02.396Z,7.13
2022-09-21T19:49:42.996Z,6.03
2022-09-21T19:52:15.353Z,4.22
2022-09-21T19:55:01.559Z,3.70
2022-09-21T19:57:47.845Z,9.07
2022-09-21T20:00:17.420Z,2.88
2022-09-21T20:03:11.123Z,1.40
2022-09-21T20:06:06.432Z,5.18
2022-09-21T20:09:11.940Z,1.48
2022-09-21T20:11:47.619Z,6.15
2022-09-21T20:14:35.868Z,2.65
2022-09-21T20:17:10.598Z,2.42
2022-09-21T20:19:50.194Z,4.25
2022-09-21T20:22:23.222Z,0.73
2022-09-21T20:25:07.551Z,2.72
2022-09-21T20:27:35.097Z,4.45
2022-09-21T20:30:04.188Z,1.65
2022-09-21T20:32:32.615Z,5.55
2022-09-21T20:35:00.215Z,2.50
2022-09-21T20:37:30.237Z,1.42
2022-09-21T20:39:57.681Z,3.95
2022-09-21T20:42:26.804Z,4.88
2022-09-21T20:44:54.759Z,2.70
2022-09-21T20:47:23.766Z,3.67
2022-09-21T20:49:51.922Z,2.47
2022-09-21T20:52:20.919Z,2.28
2022-09-21T20:54:49.697Z,2.15
2022-09-21T20:57:18.482Z,2.65
2022-09-21T20:59:46.298Z,3.75
2022-09-21T21:02:15.244Z,1.60
2022-09-21T21:04:45.445Z,2.08
2022-09-21T21:07:12.922Z,2.50
2022-09-21T21:09:40.349Z,4.80
2022-09-21T21:12:10.328Z,3.15
2022-09-21T21:17:05.663Z,2.83
2022-09-21T21:19:33.169Z,1.70
2022-09-21T21:22:03.095Z,0.47
2022-09-21T21:24:45.069Z,2.05
2022-09-21T21:27:16.659Z,2.88
2022-09-21T21:29:50.160Z,3.63
2022-09-21T21:32:19.053Z,1.35
2022-09-21T21:34:49.785Z,2.08
2022-09-21T21:37:17.454Z,3.22
2022-09-21T21:39:45.093Z,4.43
2022-09-21T21:42:12.848Z,2.60
2022-09-21T21:44:40.477Z,1.70
2022-09-21T21:47:35.175Z,2.20
2022-09-21T21:49:57.125Z,2.70
2022-09-21T21:52:24.794Z,2.22
2022-09-21T21:54:52.191Z,8.23
2022-09-21T21:57:19.898Z,1.48
2022-09-21T21:59:47.430Z,3.35
2022-09-21T22:02:15.585Z,1.75
2022-09-21T22:04:44.682Z,1.75
2022-09-21T22:07:13.270Z,1.77
2022-09-21T22:09:40.807Z,3.20
2022-09-21T22:12:09.398Z,2.63
2022-09-21T22:14:36.899Z,2.97
2022-09-21T22:17:07.114Z,2.40
2022-09-21T22:19:34.394Z,2.47
2022-09-21T22:22:02.035Z,4.38
2022-09-21T22:24:29.805Z,2.45
2022-09-21T22:26:57.528Z,3.08
2022-09-21T22:29:25.227Z,2.33
2022-09-21T22:31:55.332Z,3.45
2022-09-21T22:34:23.141Z,3.35
2022-09-21T22:36:50.831Z,2.55
2022-09-21T22:39:21.489Z,1.63
2022-09-21T22:41:49.073Z,3.60
2022-09-21T22:44:16.545Z,2.40
2022-09-21T22:46:44.782Z,6.78
2022-09-21T22:49:13.629Z,2.67
2022-09-21T22:51:41.249Z,5.35
2022-09-21T22:54:08.963Z,3.22
2022-09-21T22:56:36.633Z,6.53
2022-09-21T22:59:05.132Z,2.90
2022-09-21T23:01:38.658Z,6.22
2022-09-21T23:04:09.263Z,2.20
2022-09-21T23:06:38.911Z,6.65
2022-09-21T23:09:12.427Z,4.10
2022-09-21T23:11:43.141Z,9.77
2022-09-21T23:14:13.026Z,2.65
2022-09-21T23:16:40.730Z,7.70
2022-09-21T23:19:15.702Z,1.17
2022-09-21T23:21:45.612Z,5.85
2022-09-21T23:24:13.668Z,3.33
2022-09-21T23:26:41.320Z,3.80
2022-09-21T23:29:14.972Z,1.92
2022-09-21T23:31:45.567Z,9.75
2022-09-21T23:34:13.962Z,1.60
2022-09-21T23:36:42.246Z,6.80
2022-09-21T23:39:12.146Z,2.22
2022-09-21T23:41:39.834Z,10.40
2022-09-21T23:44:07.486Z,0.93
2022-09-21T23:46:38.637Z,7.70
2022-09-21T23:49:06.596Z,1.30
2022-09-21T23:51:36.439Z,7.68
2022-09-21T23:54:04.580Z,2.22
2022-09-21T23:56:32.264Z,5.13
2022-09-21T23:58:59.932Z,4.03
